Portada
METAR-TAF:

METAR-TAF

Aeropuertos :

Ciudad de Kuwait, Kuwait

Aeropuerto Internacional de Kuwait

latitud: 29-13N, longitud: 047-59E, altitud: 55 m

Observación

El informe se hizo hace 21 minutos, a las 00:00 UTC
Viento 5 kt del oeste-noroeste
Temperatura 30°C
Humedad 18%
Presión 1007 hPa
Visibilidad 10 km o más
sin nubes por debajo de 1500 m y sin presencia de cumulonimbus.

METAR: OKBK 260000Z 30005KT CAVOK 30/03 Q1007 NOSIG

Hora: 03:21 (00:21 UTC)

Pronóstico

El informe se hizo hace 1 hora y 36 minutos, a las 22:45 UTC
Pronóstico válido del 26 a las 00 UTC al 27 a las 06 UTC
Viento 3 kt con dirección variable
Visibilidad: 7000 m
Cielo despejado
Evolucionando progresivamente
del 26 a las 00 UTC al 26 a las 02 UTC
Viento 12 kt del norte-noroeste

TAF: OKBK 252245Z 2600/2706 VRB03KT 7000 SKC BECMG 2600/2602 33012KT

Observaciones y pronósticos meteorológicos de más de 4000 aeropuertos (mensajes METAR y TAF).

Los puntos amarillos y rojos representan las estaciones disponibles.

Ponga el ratón en el punto deseado para ver el nombre de la estación.

Haga clic para ver las observaciones y los pronósticos meteorológicos.

Para cambiar el mapa : haga clic en los botones verdes con una cruz de color negro para hacer un zoom, en el botón verde con un guión para alejar o en las flechas verdes para mapas adyacentes.


METAR-TAF: